Time;durP1;ratioP1;P1;durP2;ratioP2;P2;SDS_P1;SDS_P2;PMS_P1;PMS_P2;Temp;Humidity;BMP_temperature;BMP_pressure;BME280_temperature;BME280_humidity;BME280_pressure;Samples;Min_cycle;Max_cycle;Signal;HPM_P1;HPM_P2
2023/12/12 04:59:30;;;;;;;34.35;24.00;;;;;;;6.91;100.00;100046.44;5606439;31;80895;-55
2023/12/12 05:02:32;;;;;;;38.55;25.70;;;;;;;6.91;100.00;100046.44;5583547;32;33354;-56
2023/12/12 05:05:34;;;;;;;37.00;24.58;;;;;;;6.70;100.00;100037.63;5583836;31;34210;-55
2023/12/12 05:08:37;;;;;;;34.08;24.30;;;;;;;6.53;100.00;100051.16;5572373;32;33622;-55
2023/12/12 05:11:39;;;;;;;35.28;25.23;;;;;;;6.38;95.65;100072.38;5563994;32;34308;-56
2023/12/12 05:14:42;;;;;;;33.55;23.75;;;;;;;6.32;96.35;100082.22;5563760;32;33525;-56
2023/12/12 05:17:44;;;;;;;33.83;23.17;;;;;;;6.39;98.50;100083.84;5563937;32;33636;-56
2023/12/12 05:20:47;;;;;;;33.85;23.05;;;;;;;6.49;94.15;100091.87;5563881;32;33469;-56
2023/12/12 05:23:51;;;;;;;31.52;22.40;;;;;;;6.34;94.91;100093.41;5564188;32;34154;-56
2023/12/12 05:26:55;;;;;;;30.90;22.58;;;;;;;6.32;93.54;100092.88;5563942;32;33148;-56
2023/12/12 05:29:57;;;;;;;32.95;22.52;;;;;;;6.29;93.52;100092.56;5563488;32;34293;-57
2023/12/12 05:33:00;;;;;;;32.53;22.80;;;;;;;6.19;93.32;100092.50;5563757;32;33676;-56
2023/12/12 05:36:02;;;;;;;30.33;22.60;;;;;;;6.24;95.60;100087.22;5563769;32;34269;-56
2023/12/12 05:39:05;;;;;;;32.65;21.42;;;;;;;6.27;93.42;100092.03;5563937;32;33669;-56
2023/12/12 05:42:07;;;;;;;30.58;21.52;;;;;;;6.33;96.10;100089.16;5563912;32;34225;-56
2023/12/12 05:45:10;;;;;;;31.73;21.75;;;;;;;6.33;93.01;100101.66;5563761;32;33552;-56
2023/12/12 05:48:12;;;;;;;30.60;21.50;;;;;;;6.24;92.35;100103.22;5563725;32;33587;-56
2023/12/12 05:51:15;;;;;;;30.20;20.30;;;;;;;6.20;93.66;100100.25;5563661;32;34350;-56
2023/12/12 05:54:17;;;;;;;28.92;19.60;;;;;;;6.33;92.15;100104.31;5563292;32;33691;-56
2023/12/12 05:57:20;;;;;;;28.42;19.73;;;;;;;6.40;92.39;100107.56;5574409;32;33186;-56
2023/12/12 06:00:22;;;;;;;26.37;18.25;;;;;;;6.47;92.63;100110.78;5566572;32;34539;-56
2023/12/12 06:03:24;;;;;;;23.65;17.50;;;;;;;6.48;93.32;100117.69;5568338;32;33597;-56
2023/12/12 06:06:27;;;;;;;23.65;17.02;;;;;;;6.52;92.58;100125.97;5570521;32;33749;-56
2023/12/12 06:09:29;;;;;;;21.95;16.00;;;;;;;6.56;91.53;100127.06;5554267;32;33687;-56
2023/12/12 06:12:32;;;;;;;23.38;15.68;;;;;;;6.70;95.49;100138.06;5551258;32;33575;-56
2023/12/12 06:15:34;;;;;;;22.20;15.20;;;;;;;6.83;97.15;100137.56;5550419;32;33753;-56
2023/12/12 06:18:36;;;;;;;20.05;14.40;;;;;;;6.94;92.24;100138.41;5559228;32;34309;-56
2023/12/12 06:21:39;;;;;;;19.95;13.57;;;;;;;6.98;93.89;100142.94;5566977;32;34355;-56
2023/12/12 06:24:41;;;;;;;24.33;13.20;;;;;;;7.03;92.22;100134.97;5569500;32;33546;-56
2023/12/12 06:27:44;;;;;;;17.40;12.32;;;;;;;7.07;95.82;100141.38;5567715;32;33679;-56
2023/12/12 06:30:46;;;;;;;17.85;12.98;;;;;;;7.14;90.95;100133.13;5551070;32;33629;-56
2023/12/12 06:33:50;;;;;;;18.95;12.60;;;;;;;7.23;100.00;100138.75;5567436;32;33181;-56
2023/12/12 06:36:52;;;;;;;20.08;13.20;;;;;;;7.38;100.00;100145.97;5565574;32;33623;-55
2023/12/12 06:39:55;;;;;;;21.75;13.68;;;;;;;7.27;96.18;100148.63;5561294;32;33869;-56
2023/12/12 06:42:57;;;;;;;22.02;12.90;;;;;;;7.15;89.87;100163.25;5562822;32;34364;-56
2023/12/12 06:46:00;;;;;;;20.02;12.50;;;;;;;7.10;89.72;100163.25;5561811;32;33603;-56
2023/12/12 06:49:03;;;;;;;17.25;10.75;;;;;;;7.04;92.75;100152.56;5552548;32;33735;-56
2023/12/12 06:52:07;;;;;;;17.60;11.10;;;;;;;7.19;88.12;100159.81;5558172;32;33612;-56
2023/12/12 06:55:10;;;;;;;16.83;11.68;;;;;;;7.20;88.37;100165.94;5566189;32;33453;-56
2023/12/12 06:58:13;;;;;;;17.30;11.75;;;;;;;7.21;89.80;100178.19;5553615;32;33636;-56
2023/12/12 07:01:15;;;;;;;20.15;10.70;;;;;;;7.26;97.34;100180.88;5551519;32;33723;-56
2023/12/12 07:04:17;;;;;;;13.02;8.55;;;;;;;7.29;89.05;100175.03;5564423;32;34336;-56
2023/12/12 07:07:20;;;;;;;15.50;8.48;;;;;;;7.38;88.71;100177.97;5569020;32;33202;-56
2023/12/12 07:10:22;;;;;;;12.05;7.60;;;;;;;7.56;87.21;100169.47;5560165;32;33568;-55
2023/12/12 07:13:24;;;;;;;10.45;5.68;;;;;;;7.64;88.30;100168.12;5560674;32;35180;-56
2023/12/12 07:16:45;;;;;;;9.57;5.37;;;;;;;7.76;86.36;100172.16;5550258;32;33579;-57
2023/12/12 07:19:48;;;;;;;11.32;5.57;;;;;;;7.95;88.52;100163.63;5553428;32;33761;-56
2023/12/12 07:22:50;;;;;;;8.65;5.20;;;;;;;8.11;85.77;100167.06;5559212;32;33544;-56
2023/12/12 07:25:53;;;;;;;9.23;5.30;;;;;;;8.24;90.47;100180.69;5549214;32;33294;-56
2023/12/12 07:28:56;;;;;;;13.65;6.35;;;;;;;8.52;99.03;100178.53;5546769;32;33156;-56
2023/12/12 07:31:58;;;;;;;14.90;6.68;;;;;;;8.47;86.92;100181.19;5554659;32;34420;-57
2023/12/12 07:35:00;;;;;;;14.05;6.90;;;;;;;8.44;86.01;100185.22;5566949;32;34257;-56
2023/12/12 07:38:03;;;;;;;9.75;5.97;;;;;;;8.38;84.52;100188.97;5567686;32;34224;-56
2023/12/12 07:41:06;;;;;;;11.18;4.90;;;;;;;8.42;87.38;100190.03;5552512;32;33640;-56
2023/12/12 07:44:08;;;;;;;10.57;4.00;;;;;;;8.49;81.48;100197.75;5554577;32;33770;-56
2023/12/12 07:47:12;;;;;;;6.68;3.60;;;;;;;8.54;79.70;100194.28;5558845;32;33661;-56
2023/12/12 07:50:17;;;;;;;8.77;3.92;;;;;;;8.72;79.84;100207.06;5566996;32;34156;-56
2023/12/12 07:53:20;;;;;;;;;;;;;;;8.96;86.87;100204.56;5563957;32;33554;-56
2023/12/12 07:56:22;;;;;;;16.83;9.48;;;;;;;8.97;83.00;100208.03;5564486;32;33848;-56
2023/12/12 07:59:25;;;;;;;17.10;10.40;;;;;;;8.89;82.24;100226.25;5563000;32;33638;-56
2023/12/12 08:02:28;;;;;;;15.55;9.05;;;;;;;8.81;81.49;100224.16;5564918;32;33370;-56
2023/12/12 08:05:31;;;;;;;15.10;9.05;;;;;;;8.83;86.87;100221.19;5560171;32;33729;-56
2023/12/12 08:08:34;;;;;;;13.18;8.27;;;;;;;8.79;85.29;100212.91;5551438;32;33612;-56
2023/12/12 08:11:37;;;;;;;16.17;7.82;;;;;;;8.79;82.61;100220.94;5550531;32;34257;-56
2023/12/12 08:14:39;;;;;;;13.23;8.75;;;;;;;8.81;83.14;100216.13;5566703;32;34338;-56
2023/12/12 08:17:45;;;;;;;;;;;;;;;8.80;81.22;100209.16;5567367;32;34269;-57
2023/12/12 08:20:47;;;;;;;13.85;8.05;;;;;;;8.92;99.71;100206.19;5558901;32;33942;-56
2023/12/12 08:23:50;;;;;;;14.02;7.03;;;;;;;9.02;93.58;100205.38;5557558;32;33668;-56
2023/12/12 08:26:54;;;;;;;17.08;8.10;;;;;;;9.04;83.52;100201.34;5562173;32;33880;-56
2023/12/12 08:29:56;;;;;;;12.68;7.12;;;;;;;9.19;86.75;100189.75;5557345;32;34387;-56
2023/12/12 08:32:58;;;;;;;11.05;6.22;;;;;;;9.32;93.52;100191.03;5565301;32;33657;-56
2023/12/12 08:36:02;;;;;;;17.55;9.25;;;;;;;9.41;93.32;100202.75;5561765;32;33773;-56
2023/12/12 08:39:05;;;;;;;12.57;7.15;;;;;;;9.51;100.00;100196.56;5565084;32;34255;-56
2023/12/12 08:42:07;;;;;;;15.60;8.35;;;;;;;9.60;95.45;100200.22;5548778;32;33624;-56
2023/12/12 08:45:09;;;;;;;12.07;7.78;;;;;;;9.65;90.97;100192.97;5560593;32;34266;-56
2023/12/12 08:48:13;;;;;;;16.55;9.55;;;;;;;9.69;91.76;100203.13;5563899;32;33570;-56
2023/12/12 08:51:16;;;;;;;14.80;9.55;;;;;;;9.82;100.00;100202.50;5563828;32;33114;-56
2023/12/12 08:54:19;;;;;;;14.60;9.70;;;;;;;9.99;100.00;100202.09;5556639;32;33459;-57
2023/12/12 08:57:21;;;;;;;17.73;8.70;;;;;;;10.10;100.00;100219.69;5563456;32;34246;-56
2023/12/12 09:00:23;;;;;;;14.70;8.45;;;;;;;10.20;100.00;100222.28;5565129;32;33325;-56
2023/12/12 09:03:26;;;;;;;36.20;23.40;;;;;;;10.23;100.00;100227.09;5565478;32;33668;-56
2023/12/12 09:06:28;;;;;;;35.97;26.65;;;;;;;10.31;100.00;100221.13;5564730;32;34246;-56
2023/12/12 09:09:31;;;;;;;38.30;26.52;;;;;;;9.96;83.38;100221.41;5566695;32;33653;-57
2023/12/12 09:12:34;;;;;;;32.33;23.05;;;;;;;9.70;80.70;100215.41;5565371;32;34375;-56
2023/12/12 09:15:36;;;;;;;28.40;18.10;;;;;;;9.53;94.67;100221.94;5560980;32;32954;-56
2023/12/12 09:18:39;;;;;;;23.70;17.65;;;;;;;9.85;100.00;100210.75;5552601;32;34355;-56
2023/12/12 09:21:42;;;;;;;27.70;15.25;;;;;;;9.78;99.36;100218.31;5561505;32;33665;-56
2023/12/12 09:24:44;;;;;;;21.35;14.45;;;;;;;9.71;81.49;100209.81;5561540;32;33695;-56
2023/12/12 09:27:46;;;;;;;26.92;14.38;;;;;;;9.67;80.36;100208.75;5561840;32;33672;-56
2023/12/12 09:30:50;;;;;;;17.37;12.23;;;;;;;9.66;83.54;100207.16;5565930;32;33622;-57
2023/12/12 09:33:53;;;;;;;17.95;11.35;;;;;;;9.95;97.71;100199.19;5565075;32;34570;-56
2023/12/12 09:36:56;;;;;;;17.20;8.48;;;;;;;10.14;100.00;100204.66;5560501;32;33180;-56
2023/12/12 09:40:00;;;;;;;13.45;8.07;;;;;;;10.18;85.44;100205.69;5555811;32;34441;-57
2023/12/12 09:43:03;;;;;;;15.52;9.68;;;;;;;10.26;100.00;100204.28;5564431;32;33687;-56
2023/12/12 09:46:06;;;;;;;22.15;13.43;;;;;;;10.26;88.21;100206.97;5566744;32;32846;-57
2023/12/12 09:49:14;;;;;;;32.60;21.00;;;;;;;10.53;100.00;100193.06;5559864;32;33548;-56
2023/12/12 09:52:18;;;;;;;36.03;25.67;;;;;;;10.82;100.00;100193.00;5562646;32;34508;-57
2023/12/12 09:55:24;;;;;;;30.60;23.60;;;;;;;10.81;87.52;100197.56;5560004;32;33506;-57
2023/12/12 09:58:26;;;;;;;35.28;26.58;;;;;;;10.64;100.00;100194.56;5561546;32;33841;-56
2023/12/12 10:01:33;;;;;;;33.15;25.52;;;;;;;10.65;100.00;100185.41;5566270;32;33637;-56
2023/12/12 10:04:35;;;;;;;31.70;23.80;;;;;;;10.27;80.71;100189.84;5567138;32;33671;-56
2023/12/12 10:07:40;;;;;;;35.70;25.70;;;;;;;10.31;88.43;100202.38;5561512;32;34355;-56
2023/12/12 10:10:43;;;;;;;31.58;23.23;;;;;;;10.15;90.21;100195.53;5563172;32;33627;-56
2023/12/12 10:13:50;;;;;;;32.53;20.15;;;;;;;10.33;91.24;100191.38;5565694;32;34212;-57
2023/12/12 10:17:02;;;;;;;24.00;17.77;;;;;;;10.25;98.12;100182.03;5564427;32;33735;-56
2023/12/12 10:20:05;;;;;;;25.42;19.98;;;;;;;10.26;100.00;100186.34;5551289;32;34467;-56
2023/12/12 10:23:08;;;;;;;26.77;18.58;;;;;;;10.52;100.00;100186.88;5557835;32;33527;-56
2023/12/12 10:26:12;;;;;;;22.70;18.70;;;;;;;10.41;100.00;100187.28;5556851;32;33695;-56
2023/12/12 10:29:19;;;;;;;46.83;19.90;;;;;;;10.45;99.95;100188.31;5558521;32;34457;-56
2023/12/12 10:32:22;;;;;;;21.70;17.73;;;;;;;10.53;95.43;100177.78;5559623;32;33628;-56
2023/12/12 10:35:25;;;;;;;24.35;17.50;;;;;;;10.39;100.00;100174.16;5562423;32;34843;-56
2023/12/12 10:38:28;;;;;;;23.05;17.33;;;;;;;10.50;100.00;100172.19;5559840;32;33150;-56
2023/12/12 10:41:30;;;;;;;25.45;17.70;;;;;;;10.35;89.37;100178.50;5556784;32;32912;-57
2023/12/12 10:44:33;;;;;;;28.65;18.58;;;;;;;10.35;87.56;100178.50;5560836;32;33614;-56
2023/12/12 10:47:40;;;;;;;25.60;18.67;;;;;;;10.19;81.99;100187.72;5566344;32;34119;-56
2023/12/12 10:50:48;;;;;;;26.80;19.42;;;;;;;10.46;94.02;100193.41;5565547;32;33618;-56
2023/12/12 10:53:54;;;;;;;26.55;18.58;;;;;;;10.63;96.74;100189.44;5561395;32;33647;-56
2023/12/12 10:56:58;;;;;;;25.58;16.55;;;;;;;10.56;87.26;100189.78;5564470;32;33611;-56
2023/12/12 11:00:11;;;;;;;21.77;15.43;;;;;;;10.56;93.38;100184.44;5555139;32;33561;-56
2023/12/12 11:03:21;;;;;;;19.48;14.40;;;;;;;10.60;88.98;100185.50;5563078;32;33262;-56
2023/12/12 11:06:25;;;;;;;22.67;14.05;;;;;;;10.87;100.00;100184.91;5561373;32;34360;-56
2023/12/12 11:09:28;;;;;;;20.30;14.02;;;;;;;10.97;99.97;100176.72;5567487;31;33694;-56
2023/12/12 11:12:31;;;;;;;21.25;11.52;;;;;;;11.20;100.00;100185.81;5562373;32;34410;-56
2023/12/12 11:15:35;;;;;;;15.20;9.23;;;;;;;10.98;79.51;100180.22;5565810;32;33865;-57
2023/12/12 11:18:39;;;;;;;17.92;9.85;;;;;;;10.98;93.83;100180.22;5564060;32;34160;-57
2023/12/12 11:21:43;;;;;;;16.23;8.20;;;;;;;11.15;95.03;100185.87;5564275;32;33651;-56
2023/12/12 11:25:03;;;;;;;11.95;7.25;;;;;;;11.21;98.12;100187.41;5565930;32;33660;-56
2023/12/12 11:28:06;;;;;;;13.82;7.12;;;;;;;11.12;86.04;100185.66;5561481;32;33667;-56
2023/12/12 11:31:27;;;;;;;12.35;4.30;;;;;;;11.08;76.53;100188.12;5566129;32;33612;-56
2023/12/12 11:34:37;;;;;;;11.18;4.32;;;;;;;11.04;72.82;100179.06;5560520;32;33380;-57
2023/12/12 11:37:40;;;;;;;8.63;4.05;;;;;;;11.16;84.68;100181.31;5562361;32;34943;-57
2023/12/12 11:40:43;;;;;;;16.50;10.45;;;;;;;11.40;88.93;100181.28;5550132;32;33794;-56
2023/12/12 11:43:46;;;;;;;16.48;9.60;;;;;;;11.53;86.79;100172.50;5564048;32;34404;-56
2023/12/12 11:46:52;;;;;;;17.52;9.48;;;;;;;11.56;86.21;100171.91;5552532;32;33222;-57
2023/12/12 11:50:19;;;;;;;19.80;9.40;;;;;;;11.42;75.61;100173.72;5554016;32;33662;-56
2023/12/12 11:53:40;;;;;;;18.70;9.38;;;;;;;11.33;75.16;100170.09;5550615;32;33731;-57
2023/12/12 11:56:43;;;;;;;13.70;9.35;;;;;;;11.46;98.26;100164.00;5564182;32;34398;-56
2023/12/12 11:59:45;;;;;;;17.58;11.12;;;;;;;11.67;91.42;100176.03;5564493;32;33954;-57
2023/12/12 12:02:48;;;;;;;16.92;12.52;;;;;;;11.68;100.00;100166.88;5563246;32;33741;-56
2023/12/12 12:05:50;;;;;;;17.80;12.18;;;;;;;11.83;97.67;100167.75;5564469;32;32253;-56
2023/12/12 12:08:53;;;;;;;23.95;12.60;;;;;;;11.76;85.61;100162.75;5561500;32;33630;-56
2023/12/12 12:11:55;;;;;;;18.05;12.50;;;;;;;11.47;83.94;100154.84;5567810;32;34264;-56
2023/12/12 12:15:10;;;;;;;16.15;11.63;;;;;;;11.51;96.90;100156.66;5565376;32;33711;-56
2023/12/12 12:18:26;;;;;;;21.40;12.48;;;;;;;11.58;91.53;100152.81;5566003;32;34471;-56
2023/12/12 12:21:29;;;;;;;17.23;11.93;;;;;;;11.64;93.68;100146.28;5554995;32;33638;-56
2023/12/12 12:24:32;;;;;;;19.20;12.05;;;;;;;11.54;81.63;100149.91;5554587;32;34833;-56
2023/12/12 12:27:55;;;;;;;18.60;12.45;;;;;;;11.36;80.41;100148.06;5562068;31;33642;-57
2023/12/12 12:30:58;;;;;;;19.75;12.57;;;;;;;11.53;93.04;100149.13;5563385;32;34706;-56
2023/12/12 12:34:01;;;;;;;24.30;13.05;;;;;;;11.60;84.47;100137.22;5549418;32;33741;-56
2023/12/12 12:37:07;;;;;;;23.10;13.65;;;;;;;11.33;80.78;100137.91;5547557;32;32997;-56
2023/12/12 12:40:11;;;;;;;28.35;13.02;;;;;;;11.33;89.49;100138.69;5555302;32;33345;-56
2023/12/12 12:43:15;;;;;;;18.10;12.60;;;;;;;11.21;82.75;100135.63;5560437;32;33653;-56
2023/12/12 12:46:17;;;;;;;16.62;11.45;;;;;;;11.12;89.25;100137.38;5560686;32;33828;-57
2023/12/12 12:49:19;;;;;;;19.02;12.52;;;;;;;11.18;96.54;100131.66;5560514;32;32990;-56
2023/12/12 12:52:22;;;;;;;22.60;13.35;;;;;;;11.25;93.40;100134.75;5564717;32;33733;-56
2023/12/12 12:55:26;;;;;;;18.45;12.85;;;;;;;11.15;90.29;100134.12;5562212;32;33778;-56
2023/12/12 12:58:28;;;;;;;21.17;12.73;;;;;;;11.11;91.26;100133.91;5563449;32;33287;-56
2023/12/12 13:01:31;;;;;;;16.98;12.27;;;;;;;11.08;86.19;100129.09;5564676;32;33711;-56
2023/12/12 13:04:34;;;;;;;18.20;12.15;;;;;;;11.19;98.54;100121.72;5566411;32;33765;-56
2023/12/12 13:07:37;;;;;;;18.30;11.45;;;;;;;11.16;96.06;100117.75;5561847;32;33911;-56
2023/12/12 13:10:40;;;;;;;24.58;12.15;;;;;;;11.17;93.28;100121.22;5562222;32;33277;-56
2023/12/12 13:13:52;;;;;;;20.05;12.05;;;;;;;11.23;99.10;100112.81;5562151;32;34354;-56
2023/12/12 13:16:54;;;;;;;17.80;11.55;;;;;;;11.43;100.00;100102.84;5562491;32;34373;-56
2023/12/12 13:20:00;;;;;;;17.75;11.10;;;;;;;11.35;81.98;100090.88;5568364;32;34340;-56
2023/12/12 13:23:02;;;;;;;22.23;11.40;;;;;;;11.27;94.79;100089.66;5570216;32;34345;-56
2023/12/12 13:26:06;;;;;;;17.48;10.15;;;;;;;11.22;80.31;100096.97;5570015;32;34346;-56
2023/12/12 13:29:09;;;;;;;17.08;10.18;;;;;;;11.10;77.59;100091.28;5568383;32;33395;-56
2023/12/12 13:32:11;;;;;;;15.25;8.45;;;;;;;11.07;80.67;100110.63;5560152;32;34293;-56
2023/12/12 13:35:15;;;;;;;13.45;9.73;;;;;;;10.95;76.06;100106.47;5561581;32;34338;-56
2023/12/12 13:38:36;;;;;;;21.33;9.82;;;;;;;11.21;100.00;100117.66;5554072;32;33765;-56
2023/12/12 13:41:39;;;;;;;15.10;8.85;;;;;;;11.22;84.53;100121.91;5565439;32;33740;-56
2023/12/12 13:44:42;;;;;;;13.75;9.18;;;;;;;11.08;87.24;100128.31;5560535;32;33672;-56
2023/12/12 13:47:44;;;;;;;16.33;8.85;;;;;;;11.05;99.10;100127.00;5567683;32;33710;-56
2023/12/12 13:50:46;;;;;;;15.15;8.18;;;;;;;11.04;99.33;100136.16;5566643;32;34346;-56
2023/12/12 13:53:50;;;;;;;13.80;8.10;;;;;;;10.82;79.25;100140.16;5566720;32;33833;-56
2023/12/12 13:56:53;;;;;;;16.05;8.75;;;;;;;10.73;83.31;100143.78;5561424;32;33814;-56
2023/12/12 13:59:55;;;;;;;14.85;9.18;;;;;;;10.79;92.50;100146.13;5569145;32;34454;-56
2023/12/12 14:02:59;;;;;;;13.85;8.77;;;;;;;10.69;99.74;100146.22;5566401;32;34352;-56
2023/12/12 14:06:02;;;;;;;15.15;9.07;;;;;;;10.63;87.02;100165.31;5565123;32;33679;-57
2023/12/12 14:09:04;;;;;;;15.23;9.25;;;;;;;10.58;77.87;100158.16;5564894;31;34205;-56
2023/12/12 14:12:08;;;;;;;14.98;9.32;;;;;;;10.57;84.53;100149.31;5567155;32;34016;-56
2023/12/12 14:15:11;;;;;;;17.55;10.23;;;;;;;10.71;100.00;100144.06;5568389;32;33779;-56
2023/12/12 14:18:14;;;;;;;17.65;11.52;;;;;;;10.72;100.00;100134.91;5564322;32;34284;-56
2023/12/12 14:21:16;;;;;;;16.02;10.15;;;;;;;10.55;84.22;100137.28;5565888;32;34396;-56
2023/12/12 14:24:19;;;;;;;16.92;10.30;;;;;;;10.31;82.17;100148.00;5568342;32;33723;-56
2023/12/12 14:27:22;;;;;;;14.00;9.93;;;;;;;10.25;80.02;100152.56;5568969;32;34622;-56
2023/12/12 14:30:27;;;;;;;14.80;9.80;;;;;;;10.23;78.96;100154.75;5564919;32;33553;-56
2023/12/12 14:33:29;;;;;;;19.00;10.48;;;;;;;10.17;80.16;100158.56;5566034;32;33581;-56
2023/12/12 14:36:32;;;;;;;16.20;10.18;;;;;;;10.16;79.71;100154.25;5565876;32;32393;-56
2023/12/12 14:39:34;;;;;;;16.80;10.70;;;;;;;10.15;80.04;100143.84;5568674;32;33412;-57
2023/12/12 14:42:37;;;;;;;16.55;10.88;;;;;;;10.17;97.84;100144.38;5566384;32;34447;-56
2023/12/12 14:45:39;;;;;;;17.83;11.55;;;;;;;10.18;96.96;100140.59;5566184;32;34433;-56
2023/12/12 14:48:42;;;;;;;19.50;12.77;;;;;;;9.96;90.70;100136.50;5560321;32;33352;-56
2023/12/12 14:51:45;;;;;;;23.90;15.75;;;;;;;9.93;100.00;100139.75;5558528;32;34467;-57
2023/12/12 14:54:47;;;;;;;25.73;17.80;;;;;;;9.92;98.67;100132.00;5562569;32;34503;-56
2023/12/12 14:57:52;;;;;;;29.83;22.25;;;;;;;9.86;97.07;100137.38;5565818;32;33374;-57
2023/12/12 15:00:54;;;;;;;27.77;21.00;;;;;;;9.86;82.82;100128.56;5562566;32;33932;-56
2023/12/12 15:03:57;;;;;;;23.00;18.45;;;;;;;9.92;90.48;100123.97;5560707;32;34318;-57
2023/12/12 15:07:00;;;;;;;27.73;19.17;;;;;;;9.79;89.71;100130.75;5567544;31;34915;-57
2023/12/12 15:10:02;;;;;;;23.52;16.60;;;;;;;9.77;93.02;100125.72;5564099;32;33849;-56
2023/12/12 15:13:05;;;;;;;18.48;13.95;;;;;;;9.76;94.61;100115.25;5566514;32;34632;-56
2023/12/12 15:16:09;;;;;;;25.17;17.15;;;;;;;9.65;96.91;100118.03;5550734;32;33701;-57
2023/12/12 15:19:12;;;;;;;21.92;14.30;;;;;;;9.55;83.46;100120.78;5557790;32;32251;-56
2023/12/12 15:22:14;;;;;;;23.62;16.85;;;;;;;9.55;88.05;100123.47;5552455;32;33700;-56
2023/12/12 15:25:16;;;;;;;18.37;11.30;;;;;;;9.49;84.92;100099.69;5564060;32;33176;-56
2023/12/12 15:28:33;;;;;;;14.48;10.35;;;;;;;9.49;95.87;100097.03;5565023;32;33617;-56
2023/12/12 15:31:35;;;;;;;20.95;12.80;;;;;;;9.41;99.57;100093.88;5560922;32;33705;-56
2023/12/12 15:34:38;;;;;;;48.20;28.52;;;;;;;9.26;91.62;100099.31;5563340;32;34402;-56
2023/12/12 15:37:45;;;;;;;21.90;15.55;;;;;;;9.15;83.84;100103.94;5563540;32;34429;-56
2023/12/12 15:40:48;;;;;;;37.63;24.02;;;;;;;9.11;97.23;100092.22;5550422;32;34753;-56
2023/12/12 15:43:50;;;;;;;32.95;21.20;;;;;;;9.04;85.45;100098.91;5546930;32;34313;-56
2023/12/12 15:46:53;;;;;;;27.67;19.75;;;;;;;8.94;85.70;100097.91;5558755;32;33693;-60
2023/12/12 15:49:55;;;;;;;25.42;18.92;;;;;;;8.86;100.00;100093.12;5559079;32;34314;-56
2023/12/12 15:52:57;;;;;;;23.77;17.00;;;;;;;8.76;95.71;100097.75;5561639;32;34017;-56
2023/12/12 15:56:00;;;;;;;25.70;18.77;;;;;;;8.69;99.14;100106.84;5552985;32;34502;-56
2023/12/12 15:59:02;;;;;;;71.28;48.45;;;;;;;8.78;100.00;100100.94;5551847;32;34801;-57
2023/12/12 16:02:05;;;;;;;34.30;21.17;;;;;;;8.83;92.29;100079.53;5559062;32;33825;-56
2023/12/12 16:05:09;;;;;;;29.35;20.55;;;;;;;8.91;88.32;100093.12;5562541;32;33612;-56
2023/12/12 16:08:12;;;;;;;30.40;20.50;;;;;;;8.76;92.51;100103.88;5565402;32;32012;-56
2023/12/12 16:11:15;;;;;;;28.48;17.73;;;;;;;8.66;87.79;100096.72;5567947;32;33132;-55
2023/12/12 16:14:17;;;;;;;25.17;17.55;;;;;;;8.74;100.00;100092.69;5558738;32;33507;-56
2023/12/12 16:17:21;;;;;;;37.67;26.75;;;;;;;8.57;90.17;100084.97;5558944;32;33521;-56
2023/12/12 16:20:25;;;;;;;37.60;24.65;;;;;;;8.65;100.00;100080.97;5568563;31;33544;-56
2023/12/12 16:23:28;;;;;;;30.80;22.80;;;;;;;8.50;95.13;100086.34;5568419;32;33728;-56
2023/12/12 16:26:30;;;;;;;41.88;30.58;;;;;;;8.42;94.51;100072.50;5567595;32;33714;-56
2023/12/12 16:29:33;;;;;;;37.70;25.12;;;;;;;8.31;89.82;100073.59;5565746;32;34366;-56
